Time;durP1;ratioP1;P1;durP2;ratioP2;P2;SDS_P1;SDS_P2;PMS_P1;PMS_P2;Temp;Humidity;BMP_temperature;BMP_pressure;BME280_temperature;BME280_humidity;BME280_pressure;Samples;Min_cycle;Max_cycle;Signal;HPM_P1;HPM_P2
2022/05/17 00:01:19;;;;;;;5.57;2.90;;;14.50;78.10;;;;;;10066858;29;20053;-87
2022/05/17 00:06:20;;;;;;;5.13;2.38;;;14.50;77.60;;;;;;10054891;29;20057;-87
2022/05/17 00:11:21;;;;;;;5.97;2.95;;;14.40;78.60;;;;;;10054154;29;20053;-88
2022/05/17 00:16:22;;;;;;;5.30;2.83;;;14.40;77.80;;;;;;10046064;29;20045;-88
2022/05/17 00:21:23;;;;;;;6.95;2.60;;;14.30;78.00;;;;;;10061321;29;20129;-88
2022/05/17 00:26:25;;;;;;;7.57;3.05;;;14.30;78.70;;;;;;10057600;29;20040;-87
2022/05/17 00:31:26;;;;;;;5.03;2.65;;;14.20;80.10;;;;;;10068349;29;20029;-86
2022/05/17 00:36:26;;;;;;;7.50;3.25;;;14.00;81.50;;;;;;10071836;29;20045;-85
2022/05/17 00:41:28;;;;;;;5.20;2.65;;;13.80;82.00;;;;;;10056877;29;20048;-87
2022/05/17 00:46:42;;;;;;;5.18;2.70;;;13.70;81.00;;;;;;10070952;29;20060;-87
2022/05/17 00:51:44;;;;;;;7.07;2.78;;;13.80;80.80;;;;;;10068669;29;20031;-87
2022/05/17 00:57:04;;;;;;;5.50;2.63;;;13.90;80.90;;;;;;10071883;29;20769;-88
2022/05/17 01:02:08;;;;;;;6.22;3.17;;;13.90;81.30;;;;;;10064240;29;20056;-87
2022/05/17 01:07:13;;;;;;;4.28;2.42;;;13.80;80.40;;;;;;10070482;29;20037;-87
2022/05/17 01:12:13;;;;;;;8.05;2.88;;;13.80;80.90;;;;;;10070221;29;20057;-87
2022/05/17 01:17:14;;;;;;;5.90;2.72;;;13.80;79.60;;;;;;10064051;29;20037;-89
2022/05/17 01:22:17;;;;;;;7.20;2.90;;;13.80;81.20;;;;;;10091932;29;20156;-86
2022/05/17 01:27:34;;;;;;;6.50;2.90;;;13.60;81.50;;;;;;10044172;29;20072;-87
2022/05/17 01:32:34;;;;;;;3.88;2.35;;;13.40;80.60;;;;;;10056736;29;20124;-86
2022/05/17 01:37:35;;;;;;;4.10;2.30;;;13.30;82.00;;;;;;10068928;29;20049;-86
2022/05/17 01:42:36;;;;;;;3.42;2.00;;;13.20;81.20;;;;;;10069760;29;20089;-87
2022/05/17 01:47:36;;;;;;;5.07;2.10;;;13.20;81.30;;;;;;10070313;29;20470;-88
2022/05/17 01:52:37;;;;;;;3.58;2.25;;;13.20;80.80;;;;;;10068498;29;20153;-85
2022/05/17 01:57:38;;;;;;;4.95;2.20;;;13.30;80.30;;;;;;10069403;29;20049;-88
2022/05/17 02:02:38;;;;;;;4.10;2.50;;;13.30;80.30;;;;;;10050680;29;20041;-87
2022/05/17 02:07:39;;;;;;;3.92;2.38;;;13.40;81.00;;;;;;10054657;29;20033;-88
2022/05/17 02:12:40;;;;;;;6.05;2.28;;;13.40;80.70;;;;;;10069906;29;20060;-86
2022/05/17 02:17:42;;;;;;;4.72;2.20;;;13.30;81.70;;;;;;10068286;29;20045;-89
2022/05/17 02:22:42;;;;;;;4.05;2.50;;;13.30;83.00;;;;;;10036265;29;20037;-86
2022/05/17 02:27:43;;;;;;;6.45;2.40;;;13.20;82.80;;;;;;10071162;29;20037;-89
2022/05/17 02:32:44;;;;;;;5.07;2.50;;;13.10;82.70;;;;;;10071093;29;20041;-86
2022/05/17 02:37:44;;;;;;;2.95;2.20;;;13.10;83.10;;;;;;10076455;29;20098;-87
2022/05/17 02:42:45;;;;;;;4.60;2.30;;;13.00;83.50;;;;;;10070469;29;20045;-87
2022/05/17 02:47:46;;;;;;;6.72;2.40;;;12.80;83.80;;;;;;10075991;29;20037;-86
2022/05/17 02:52:46;;;;;;;4.93;2.58;;;12.80;83.90;;;;;;10046580;29;20040;-87
2022/05/17 02:57:47;;;;;;;4.93;2.10;;;12.80;83.40;;;;;;10075444;29;20037;-89
2022/05/17 03:02:48;;;;;;;4.20;2.25;;;12.80;83.80;;;;;;10074349;29;20033;-89
2022/05/17 03:07:54;;;;;;;6.88;2.60;;;12.80;83.80;;;;;;10072991;23;20053;-91
2022/05/17 03:12:54;;;;;;;7.07;2.92;;;12.90;83.50;;;;;;10030063;29;20044;-92
2022/05/17 03:17:55;;;;;;;4.35;2.80;;;13.00;83.40;;;;;;10035600;29;20041;-89
2022/05/17 03:22:56;;;;;;;7.68;2.83;;;13.00;84.30;;;;;;10023929;29;20037;-87
2022/05/17 03:27:56;;;;;;;6.78;2.80;;;13.00;84.00;;;;;;10025825;29;20030;-87
2022/05/17 03:32:58;;;;;;;4.20;2.50;;;13.10;83.90;;;;;;10024714;29;20401;-90
2022/05/17 03:37:59;;;;;;;4.80;2.67;;;13.20;84.00;;;;;;10028242;29;20049;-91
2022/05/17 03:43:00;;;;;;;7.20;2.60;;;13.20;84.50;;;;;;10009393;29;20056;-90
2022/05/17 03:48:01;;;;;;;4.50;2.45;;;13.20;86.50;;;;;;10023011;29;20068;-86
2022/05/17 03:53:02;;;;;;;4.43;2.88;;;13.20;88.20;;;;;;10030282;29;20033;-88
2022/05/17 03:58:03;;;;;;;4.18;2.70;;;13.10;89.50;;;;;;10080719;24;20953;-89
2022/05/17 04:03:04;;;;;;;7.38;3.55;;;13.00;89.80;;;;;;10071652;29;20081;-89
2022/05/17 04:08:05;;;;;;;6.13;3.38;;;13.10;90.20;;;;;;10072556;29;20020;-88
2022/05/17 04:13:06;;;;;;;7.15;3.03;;;13.20;88.90;;;;;;10072652;29;20021;-90
2022/05/17 04:18:07;;;;;;;7.75;2.90;;;13.20;88.70;;;;;;10072639;29;20044;-89
2022/05/17 04:23:08;;;;;;;6.50;3.38;;;13.30;87.70;;;;;;10072114;29;20572;-88
2022/05/17 04:28:09;;;;;;;7.38;3.17;;;13.50;87.40;;;;;;10072023;29;20032;-89
2022/05/17 04:33:09;;;;;;;6.15;3.30;;;13.60;87.50;;;;;;10082414;29;20575;-87
2022/05/17 04:38:10;;;;;;;8.73;3.50;;;13.80;86.70;;;;;;10101428;29;20041;-88
2022/05/17 04:43:11;;;;;;;6.82;3.58;;;13.90;86.70;;;;;;10071065;29;20036;-88
2022/05/17 04:48:12;;;;;;;9.68;3.55;;;14.00;86.70;;;;;;10071714;29;20124;-88
2022/05/17 04:53:13;;;;;;;4.95;3.38;;;14.20;87.10;;;;;;10071118;29;20110;-88
2022/05/17 04:58:14;;;;;;;7.55;3.78;;;14.30;87.00;;;;;;10070894;29;20126;-87
2022/05/17 05:03:15;;;;;;;6.20;3.83;;;14.40;87.10;;;;;;10071625;29;20386;-87
2022/05/17 05:08:16;;;;;;;5.50;3.85;;;14.50;86.30;;;;;;10071153;29;20044;-88
2022/05/17 05:13:19;;;;;;;6.30;2.95;;;14.60;85.80;;;;;;10071184;29;20099;-87
2022/05/17 05:18:20;;;;;;;8.73;4.10;;;14.80;88.30;;;;;;10070644;29;20068;-87
2022/05/17 05:23:20;;;;;;;8.68;4.15;;;15.00;87.10;;;;;;10070591;29;20036;-87
2022/05/17 05:28:21;;;;;;;15.60;5.15;;;15.20;86.70;;;;;;10086220;29;20029;-88
2022/05/17 05:33:22;;;;;;;8.07;4.05;;;15.40;85.50;;;;;;10085688;29;20029;-87
2022/05/17 05:38:23;;;;;;;8.32;5.05;;;15.50;85.80;;;;;;10085520;29;20273;-88
2022/05/17 05:43:25;;;;;;;11.70;4.93;;;15.60;85.70;;;;;;10085798;29;20104;-87
2022/05/17 05:48:25;;;;;;;8.30;4.40;;;15.60;85.80;;;;;;10086934;29;20037;-88
2022/05/17 05:53:26;;;;;;;9.55;4.65;;;15.70;86.30;;;;;;10062492;29;20455;-88
2022/05/17 05:58:30;;;;;;;9.02;4.40;;;15.80;85.50;;;;;;10046294;29;20050;-88
2022/05/17 06:03:32;;;;;;;14.40;4.85;;;15.90;85.70;;;;;;10083537;29;20028;-88
2022/05/17 06:08:34;;;;;;;10.80;4.60;;;16.10;84.20;;;;;;10096942;29;20485;-89
2022/05/17 06:13:35;;;;;;;9.93;5.20;;;16.10;84.70;;;;;;10083221;29;20651;-88
2022/05/17 06:18:36;;;;;;;12.73;5.15;;;16.20;84.70;;;;;;10087011;29;20032;-89
2022/05/17 06:23:36;;;;;;;15.30;6.45;;;16.40;85.00;;;;;;10085204;29;20025;-90
2022/05/17 06:28:37;;;;;;;16.38;7.57;;;16.80;86.20;;;;;;10075870;29;20129;-89
2022/05/17 06:33:39;;;;;;;19.98;8.43;;;17.30;83.50;;;;;;10092216;29;20085;-90
2022/05/17 06:38:40;;;;;;;19.35;7.90;;;17.70;81.20;;;;;;10074453;29;20522;-89
2022/05/17 06:43:41;;;;;;;14.68;6.97;;;17.90;78.90;;;;;;10075327;29;20060;-90
2022/05/17 06:48:43;;;;;;;9.73;5.47;;;18.10;78.50;;;;;;10082230;29;20198;-89
2022/05/17 06:53:46;;;;;;;12.70;3.97;;;18.10;77.70;;;;;;10086852;29;20036;-89
2022/05/17 06:58:47;;;;;;;9.85;3.85;;;18.30;74.90;;;;;;10073375;29;20596;-89
2022/05/17 07:03:50;;;;;;;10.15;3.90;;;18.40;74.80;;;;;;10082046;29;20024;-90
2022/05/17 07:08:51;;;;;;;8.13;3.38;;;18.50;75.60;;;;;;10064174;29;20088;-89
2022/05/17 07:13:52;;;;;;;8.82;3.40;;;18.80;73.90;;;;;;10081508;29;20112;-89
2022/05/17 07:18:53;;;;;;;8.23;3.55;;;19.40;72.60;;;;;;10086848;29;20385;-89
2022/05/17 07:23:53;;;;;;;8.45;3.10;;;19.90;72.70;;;;;;10073150;29;20107;-90
2022/05/17 07:28:54;;;;;;;7.63;2.55;;;20.20;69.70;;;;;;10073248;29;20131;-88
2022/05/17 07:33:57;;;;;;;10.88;3.67;;;20.40;69.60;;;;;;10074287;29;20025;-89
2022/05/17 07:38:59;;;;;;;8.38;3.03;;;20.70;69.00;;;;;;10071148;29;20600;-89
2022/05/17 07:43:59;;;;;;;9.57;3.75;;;20.80;70.50;;;;;;10071158;29;20063;-88
2022/05/17 07:49:01;;;;;;;8.52;3.22;;;20.90;66.60;;;;;;10070501;29;20668;-89
2022/05/17 07:54:02;;;;;;;12.43;4.70;;;20.80;66.40;;;;;;10073266;29;20029;-89
2022/05/17 07:59:02;;;;;;;11.55;4.85;;;21.00;69.00;;;;;;10073286;29;20064;-89
2022/05/17 08:04:03;;;;;;;16.35;4.53;;;21.20;66.60;;;;;;10072927;29;20033;-89
2022/05/17 08:09:05;;;;;;;13.05;3.95;;;21.20;66.50;;;;;;10073028;29;20044;-88
2022/05/17 08:14:05;;;;;;;9.90;4.05;;;21.20;64.50;;;;;;10072779;29;20025;-88
2022/05/17 08:19:06;;;;;;;14.50;4.60;;;20.90;64.30;;;;;;10073168;29;20076;-89
2022/05/17 08:24:08;;;;;;;17.75;5.30;;;21.20;65.40;;;;;;10072629;29;20617;-89
2022/05/17 08:29:09;;;;;;;8.40;3.72;;;21.50;64.90;;;;;;10071310;29;20044;-89
2022/05/17 08:34:36;;;;;;;5.13;3.08;;;21.40;64.60;;;;;;10072495;29;20056;-89
2022/05/17 08:39:37;;;;;;;6.00;2.65;;;21.80;67.90;;;;;;10071189;29;20408;-89
2022/05/17 08:44:48;;;;;;;7.22;2.63;;;22.30;63.30;;;;;;10071468;29;20037;-89
2022/05/17 08:50:02;;;;;;;9.30;3.53;;;22.10;62.00;;;;;;10071173;29;20057;-90
2022/05/17 08:55:27;;;;;;;4.07;2.50;;;21.80;62.70;;;;;;10071205;29;20064;-88
2022/05/17 09:00:41;;;;;;;8.47;3.60;;;22.00;60.10;;;;;;10070909;29;20053;-89
2022/05/17 09:05:48;;;;;;;9.73;3.63;;;22.10;62.80;;;;;;10071418;29;20108;-89
2022/05/17 09:11:10;;;;;;;6.95;2.65;;;22.20;62.30;;;;;;10071182;29;20028;-89
2022/05/17 09:16:12;;;;;;;5.30;2.45;;;22.20;59.20;;;;;;10070569;29;20673;-89
2022/05/17 09:21:34;;;;;;;5.07;2.25;;;22.40;60.30;;;;;;10070428;29;20041;-89
2022/05/17 09:26:37;;;;;;;5.18;2.60;;;22.80;59.50;;;;;;10070410;29;20120;-90
2022/05/17 09:31:38;;;;;;;6.10;2.25;;;23.10;58.70;;;;;;10070034;29;20025;-90
2022/05/17 09:36:48;;;;;;;6.70;2.88;;;23.60;60.60;;;;;;10070416;29;20029;-90
2022/05/17 09:41:50;;;;;;;7.22;2.47;;;24.10;57.00;;;;;;10070126;29;20029;-90
2022/05/17 09:46:57;;;;;;;8.77;2.55;;;24.20;55.50;;;;;;10070206;29;20481;-88
2022/05/17 09:57:25;;;;;;;4.35;2.25;;;23.70;56.80;;;;;;10087029;29;20060;-90
2022/05/17 10:02:29;;;;;;;5.78;2.53;;;23.40;57.40;;;;;;10070031;29;20056;-89
2022/05/17 10:07:30;;;;;;;7.15;2.47;;;23.30;57.40;;;;;;10070136;29;20120;-89
2022/05/17 10:12:34;;;;;;;6.63;2.13;;;23.20;57.40;;;;;;10069843;29;20029;-89
2022/05/17 10:17:49;;;;;;;6.03;2.10;;;23.20;56.10;;;;;;10069320;29;20045;-90
2022/05/17 10:22:50;;;;;;;;;;;22.80;57.20;;;;;;10070131;29;20033;-88
2022/05/17 10:27:55;;;;;;;4.25;2.40;;;22.80;56.00;;;;;;10069392;29;19982;-89
2022/05/17 10:33:09;;;;;;;3.65;1.77;;;22.70;57.00;;;;;;10069876;29;20557;-90
2022/05/17 10:38:10;;;;;;;5.57;2.25;;;23.00;58.30;;;;;;10069417;29;20041;-91
2022/05/17 10:43:15;;;;;;;3.53;1.95;;;22.60;57.50;;;;;;10069400;29;20089;-90
2022/05/17 10:48:33;;;;;;;7.88;1.85;;;22.10;59.10;;;;;;10069491;29;20113;-90
2022/05/17 10:54:10;;;;;;;3.80;1.73;;;21.50;60.20;;;;;;10076198;29;20037;-90
2022/05/17 10:59:16;;;;;;;5.07;1.83;;;21.00;61.40;;;;;;10044373;29;20574;-90
2022/05/17 11:05:07;;;;;;;4.57;1.45;;;20.80;62.40;;;;;;10075419;29;20031;-90
2022/05/17 11:10:19;;;;;;;4.75;2.03;;;20.60;62.60;;;;;;10091908;29;20389;-89
2022/05/17 11:15:26;;;;;;;2.10;1.40;;;20.40;62.90;;;;;;10053140;29;20169;-90
2022/05/17 11:20:30;;;;;;;3.78;2.00;;;20.30;62.70;;;;;;10081360;29;20382;-90
2022/05/17 11:25:59;;;;;;;5.40;1.77;;;20.30;62.30;;;;;;10093821;29;20733;-91
2022/05/17 11:31:15;;;;;;;7.00;1.90;;;20.10;63.00;;;;;;10082142;29;20700;-91
2022/05/17 11:36:31;;;;;;;3.88;1.80;;;20.10;63.80;;;;;;10072910;29;20097;-89
2022/05/17 11:41:48;;;;;;;3.58;1.95;;;19.90;64.00;;;;;;10075822;29;20037;-91
2022/05/17 11:46:57;;;;;;;4.78;1.90;;;19.80;65.90;;;;;;10073248;29;20040;-91
2022/05/17 11:51:58;;;;;;;5.97;2.15;;;19.60;65.10;;;;;;10072830;29;20037;-90
2022/05/17 11:56:59;;;;;;;4.82;2.22;;;19.40;65.40;;;;;;10064478;29;20060;-91
2022/05/17 12:02:07;;;;;;;5.30;2.03;;;19.30;65.00;;;;;;10066561;29;20025;-89
2022/05/17 12:07:26;;;;;;;4.05;1.90;;;19.30;66.10;;;;;;10081462;29;20045;-89
2022/05/17 12:12:41;;;;;;;7.50;2.10;;;19.30;65.90;;;;;;10068187;29;20032;-91
2022/05/17 12:18:02;;;;;;;10.03;2.57;;;19.30;64.80;;;;;;10065727;29;20048;-90
2022/05/17 12:23:17;;;;;;;4.82;1.70;;;19.20;65.80;;;;;;10079053;29;20086;-89
2022/05/17 12:28:26;;;;;;;10.23;2.50;;;19.20;64.50;;;;;;10073769;29;20029;-90
2022/05/17 12:33:36;;;;;;;5.78;1.73;;;19.20;63.80;;;;;;10059630;29;20033;-90
2022/05/17 12:43:57;;;;;;;3.25;1.50;;;19.40;65.00;;;;;;10115397;29;20412;-87
2022/05/17 12:49:13;;;;;;;5.45;2.33;;;19.70;64.40;;;;;;10102157;29;20429;-90
2022/05/17 12:54:16;;;;;;;3.10;1.30;;;19.60;62.90;;;;;;10074409;29;20025;-88
2022/05/17 12:59:42;;;;;;;3.47;1.35;;;19.60;64.10;;;;;;10066067;29;20572;-89
2022/05/17 13:04:46;;;;;;;;;;;19.50;61.80;;;;;;10082787;29;20037;-92
2022/05/17 13:09:55;;;;;;;3.65;1.60;;;19.30;61.90;;;;;;10072579;29;20002;-91
2022/05/17 13:14:56;;;;;;;4.85;1.60;;;19.10;62.20;;;;;;10080572;29;20076;-91
2022/05/17 13:20:07;;;;;;;4.55;1.45;;;19.10;63.40;;;;;;10056732;29;20061;-92
2022/05/17 13:25:16;;;;;;;2.67;1.25;;;19.00;62.60;;;;;;10070697;29;20033;-93
2022/05/17 13:30:42;;;;;;;2.58;1.60;;;19.00;63.40;;;;;;10071161;29;20025;-92
2022/05/17 13:36:30;;;;;;;4.13;1.33;;;18.80;61.10;;;;;;10057534;29;20029;-91
2022/05/17 13:41:41;;;;;;;3.13;1.10;;;18.80;62.00;;;;;;10047513;29;20510;-92
2022/05/17 13:48:17;;;;;;;;;;;;;;;;;;;;;
2022/05/17 13:53:21;;;;;;;4.10;1.23;;;18.60;62.70;;;;;;10085974;29;20028;-94
2022/05/17 13:58:23;;;;;;;3.97;1.50;;;18.60;63.80;;;;;;10062901;29;20057;-90
2022/05/17 14:03:27;;;;;;;1.92;1.25;;;18.60;64.20;;;;;;10084260;29;20067;-90
2022/05/17 14:13:53;;;;;;;;;;;18.60;64.50;;;;;;10072511;29;20079;-91
2022/05/17 14:18:54;;;;;;;2.95;1.23;;;18.60;65.00;;;;;;10065036;29;19931;-90
2022/05/17 14:23:56;;;;;;;4.60;1.27;;;18.60;63.80;;;;;;10061709;29;20039;-89
2022/05/17 14:28:57;;;;;;;2.55;1.23;;;18.60;63.70;;;;;;10069705;29;20045;-90
2022/05/17 14:33:59;;;;;;;3.83;1.27;;;18.70;65.30;;;;;;10076621;29;20051;-92
2022/05/17 14:39:00;;;;;;;1.88;1.30;;;18.90;63.70;;;;;;10075838;29;20079;-89
2022/05/17 14:44:02;;;;;;;2.80;1.40;;;19.10;65.10;;;;;;10076817;29;20821;-90
2022/05/17 14:49:03;;;;;;;3.35;1.30;;;19.30;65.10;;;;;;10072883;29;20025;-89
2022/05/17 14:54:06;;;;;;;2.75;1.55;;;19.40;63.50;;;;;;10074504;29;20132;-91
2022/05/17 14:59:08;;;;;;;2.72;1.52;;;19.30;62.20;;;;;;10073133;29;20065;-88
2022/05/17 15:04:09;;;;;;;2.95;1.50;;;19.20;63.40;;;;;;10075895;29;20029;-91
2022/05/17 15:09:09;;;;;;;4.13;1.63;;;19.00;61.60;;;;;;10068553;29;20373;-91
2022/05/17 15:14:10;;;;;;;5.03;1.70;;;18.80;62.40;;;;;;10068148;29;20064;-90
2022/05/17 15:19:13;;;;;;;3.05;2.13;;;18.70;62.70;;;;;;10070722;29;20128;-87
2022/05/17 15:24:13;;;;;;;4.28;2.03;;;18.70;63.10;;;;;;10064443;29;20036;-90
2022/05/17 15:29:14;;;;;;;3.47;1.98;;;18.50;63.30;;;;;;10066154;29;20029;-89
2022/05/17 15:34:20;;;;;;;3.58;1.80;;;18.50;63.60;;;;;;10073152;29;20039;-89
2022/05/17 15:39:20;;;;;;;;;;;18.50;63.30;;;;;;10071090;29;20596;-88
2022/05/17 15:44:21;;;;;;;6.32;1.95;;;18.50;64.60;;;;;;10071047;29;19923;-90
2022/05/17 15:54:41;;;;;;;4.72;2.08;;;18.30;62.70;;;;;;10081816;29;20042;-88
2022/05/17 15:59:42;;;;;;;4.25;1.70;;;18.30;63.60;;;;;;10071985;29;20065;-88
2022/05/17 16:04:55;;;;;;;5.30;1.70;;;18.20;64.10;;;;;;10064652;29;20037;-89
2022/05/17 16:09:56;;;;;;;1.92;1.58;;;18.20;64.30;;;;;;10066991;29;20736;-90
2022/05/17 16:14:57;;;;;;;4.28;2.00;;;18.20;64.30;;;;;;10063345;29;20402;-90
2022/05/17 16:19:58;;;;;;;4.22;1.85;;;18.20;65.10;;;;;;10072593;29;20037;-91
2022/05/17 16:25:00;;;;;;;2.83;1.75;;;18.10;65.30;;;;;;10071944;29;20040;-90
2022/05/17 16:30:01;;;;;;;3.63;1.65;;;18.00;67.70;;;;;;10070689;29;20486;-91
2022/05/17 16:35:02;;;;;;;3.33;1.80;;;17.90;69.00;;;;;;10056546;29;20029;-89
2022/05/17 16:40:05;;;;;;;3.85;1.77;;;17.90;67.90;;;;;;10071396;29;20037;-89
2022/05/17 16:45:07;;;;;;;5.03;1.65;;;18.00;68.00;;;;;;10067095;29;20032;-88
2022/05/17 16:50:33;;;;;;;3.30;2.05;;;17.90;69.60;;;;;;10067789;29;20037;-90
2022/05/17 16:55:34;;;;;;;;;;;17.90;68.00;;;;;;10053450;29;20065;-89
2022/05/17 17:00:35;;;;;;;2.08;1.50;;;17.90;68.80;;;;;;10056609;29;19928;-88
2022/05/17 17:05:38;;;;;;;3.38;1.60;;;17.80;67.20;;;;;;10052337;29;20040;-87
2022/05/17 17:10:41;;;;;;;3.90;2.03;;;17.60;66.50;;;;;;10060789;29;20029;-90
2022/05/17 17:15:46;;;;;;;5.22;2.67;;;17.40;67.50;;;;;;10062622;29;20055;-90
2022/05/17 17:20:47;;;;;;;3.13;2.00;;;17.20;70.50;;;;;;10066822;29;20041;-89
2022/05/17 17:25:48;;;;;;;3.63;2.30;;;16.90;74.30;;;;;;10072959;29;20393;-91
2022/05/17 17:30:49;;;;;;;4.82;2.17;;;16.50;76.10;;;;;;10068209;29;20025;-91
2022/05/17 17:41:11;;;;;;;4.70;3.00;;;16.00;77.60;;;;;;10077864;29;20426;-87
2022/05/17 17:46:16;;;;;;;4.10;2.88;;;15.90;79.50;;;;;;10083337;29;20033;-92
2022/05/17 17:51:18;;;;;;;6.67;2.53;;;15.80;79.40;;;;;;10072288;29;20465;-91
2022/05/17 17:56:23;;;;;;;4.20;2.80;;;15.70;80.00;;;;;;10069354;29;20089;-89
2022/05/17 18:01:24;;;;;;;4.03;2.75;;;15.60;80.80;;;;;;10063120;29;20053;-88
2022/05/17 18:06:24;;;;;;;4.43;2.78;;;15.40;79.80;;;;;;10075086;29;20481;-89
2022/05/17 18:11:25;;;;;;;6.18;2.65;;;15.10;80.50;;;;;;10072893;29;20033;-90
2022/05/17 18:16:36;;;;;;;8.05;4.07;;;14.80;80.70;;;;;;10072123;29;20024;-90
2022/05/17 18:21:40;;;;;;;8.45;3.55;;;14.50;80.00;;;;;;10073618;29;20040;-91
2022/05/17 18:26:49;;;;;;;6.53;3.28;;;14.50;78.50;;;;;;10072227;29;20037;-89
2022/05/17 18:31:50;;;;;;;5.78;3.10;;;14.40;77.90;;;;;;10073895;29;20040;-89
2022/05/17 18:36:50;;;;;;;5.43;3.45;;;14.00;80.50;;;;;;10072936;29;20040;-90
2022/05/17 18:41:52;;;;;;;7.18;3.40;;;13.50;82.20;;;;;;10075920;29;20128;-89
2022/05/17 18:46:53;;;;;;;7.03;3.63;;;13.10;83.40;;;;;;10074379;29;20060;-91
2022/05/17 18:51:54;;;;;;;6.35;3.67;;;12.80;84.50;;;;;;10070723;29;20514;-91
2022/05/17 18:56:58;;;;;;;6.22;2.92;;;12.60;84.70;;;;;;10069140;29;20053;-90
2022/05/17 19:02:00;;;;;;;5.25;3.05;;;12.30;85.50;;;;;;10081694;29;20049;-91
2022/05/17 19:07:00;;;;;;;7.80;3.38;;;12.20;86.00;;;;;;10066200;29;20047;-91
2022/05/17 19:17:41;;;;;;;7.93;3.60;;;11.80;87.60;;;;;;10096025;29;20131;-89
2022/05/17 19:22:42;;;;;;;10.68;3.75;;;11.60;88.70;;;;;;10072331;29;20071;-88
2022/05/17 19:27:43;;;;;;;6.07;3.40;;;11.50;88.10;;;;;;10072911;29;20051;-88
2022/05/17 19:32:46;;;;;;;8.30;3.45;;;11.60;88.00;;;;;;10072360;29;20052;-88
2022/05/17 19:43:14;;;;;;;7.40;2.95;;;11.80;87.30;;;;;;10084659;29;20050;-91
2022/05/17 19:48:22;;;;;;;4.53;2.88;;;11.90;86.80;;;;;;10072527;29;20048;-92
2022/05/17 19:53:30;;;;;;;6.75;2.75;;;11.80;87.00;;;;;;10062552;29;20045;-91
2022/05/17 19:58:35;;;;;;;6.82;3.42;;;11.90;85.70;;;;;;10070660;29;20088;-92
2022/05/17 20:04:20;;;;;;;3.97;2.53;;;12.00;83.00;;;;;;10068174;29;20029;-90
2022/05/17 20:09:30;;;;;;;6.25;2.47;;;12.10;84.00;;;;;;10053674;29;20034;-91
2022/05/17 20:15:15;;;;;;;;;;;;;;;;;;;;;
2022/05/17 20:20:57;;;;;;;7.32;2.90;;;11.50;85.20;;;;;;10077893;29;20554;-91
2022/05/17 20:27:25;;;;;;;;;;;;;;;;;;;;;
2022/05/17 20:33:04;;;;;;;;;;;;;;;;;;;;;
2022/05/17 20:38:07;;;;;;;6.85;3.20;;;10.50;87.60;;;;;;9928092;29;20047;-91
2022/05/17 20:43:32;;;;;;;8.47;3.93;;;10.30;88.40;;;;;;9949039;29;20046;-92
2022/05/17 21:00:41;;;;;;;8.33;3.43;;;10.10;89.80;;;;;;10848903;23;20524;-90
2022/05/17 21:05:55;;;;;;;6.80;3.00;;;10.20;89.40;;;;;;10107124;29;20041;-91
2022/05/17 21:16:56;;;;;;;3.97;2.75;;;9.90;89.70;;;;;;10109573;29;20865;-92
2022/05/17 21:21:57;;;;;;;7.33;2.50;;;9.80;89.30;;;;;;10094967;29;20139;-91
2022/05/17 21:27:06;;;;;;;4.53;2.10;;;9.90;88.50;;;;;;10103712;29;20493;-92
2022/05/17 21:38:48;;;;;;;10.77;2.43;;;10.00;85.70;;;;;;10036505;29;20501;-91
2022/05/17 21:43:52;;;;;;;4.20;2.00;;;10.00;85.20;;;;;;10097972;29;20413;-90
2022/05/17 21:49:00;;;;;;;3.20;2.10;;;9.90;86.20;;;;;;10105333;29;20048;-92
2022/05/17 21:54:01;;;;;;;6.83;2.57;;;9.70;86.60;;;;;;10056155;29;20036;-91
2022/05/17 21:59:02;;;;;;;5.63;1.97;;;9.50;87.20;;;;;;10063880;29;20060;-90
2022/05/17 22:04:03;;;;;;;5.70;2.30;;;9.30;87.80;;;;;;10058946;29;20062;-92
2022/05/17 22:09:05;;;;;;;4.30;2.30;;;9.00;88.70;;;;;;10057534;29;20474;-91
2022/05/17 22:14:06;;;;;;;4.63;2.13;;;8.80;90.00;;;;;;10066163;29;20060;-91
2022/05/17 22:19:10;;;;;;;6.27;2.87;;;8.70;90.20;;;;;;10058483;29;20777;-91
2022/05/17 22:24:12;;;;;;;6.73;3.27;;;8.50;90.50;;;;;;10059404;29;20041;-92
2022/05/17 22:29:13;;;;;;;6.67;2.27;;;8.40;90.90;;;;;;10054349;29;20040;-90
2022/05/17 22:34:13;;;;;;;3.63;2.03;;;8.20;91.50;;;;;;10053532;29;20065;-90
2022/05/17 22:39:14;;;;;;;5.07;2.17;;;8.00;91.80;;;;;;10067710;29;20037;-91
2022/05/17 22:46:59;;;;;;;3.57;2.27;;;7.90;92.40;;;;;;10051418;29;20389;-91
2022/05/17 22:49:37;;;;;;;4.70;1.87;;;7.80;92.90;;;;;;10083382;29;20041;-91
2022/05/17 22:54:38;;;;;;;3.40;1.83;;;7.70;93.40;;;;;;10075749;29;20041;-91
2022/05/17 22:59:39;;;;;;;5.00;2.17;;;7.70;93.80;;;;;;10075087;29;20047;-91
2022/05/17 23:04:40;;;;;;;3.13;1.90;;;7.60;93.90;;;;;;10074905;29;20057;-93
2022/05/17 23:09:41;;;;;;;5.67;2.20;;;7.60;94.40;;;;;;10040742;29;20048;-91
2022/05/17 23:14:44;;;;;;;4.57;2.00;;;7.60;94.80;;;;;;10074510;29;20064;-91
2022/05/17 23:19:45;;;;;;;4.63;1.80;;;7.60;94.60;;;;;;10074844;29;20123;-92
2022/05/17 23:30:05;;;;;;;5.63;2.30;;;7.60;94.70;;;;;;10076652;29;20073;-91
2022/05/17 23:35:07;;;;;;;4.80;2.40;;;7.60;94.80;;;;;;10074344;29;20212;-91
2022/05/17 23:40:08;;;;;;;5.83;2.10;;;7.60;95.10;;;;;;10084131;29;20056;-91
2022/05/17 23:45:09;;;;;;;4.23;2.63;;;7.50;95.10;;;;;;10073796;29;20389;-91
2022/05/17 23:50:12;;;;;;;7.97;2.50;;;7.40;95.50;;;;;;10069179;29;20025;-90
2022/05/17 23:55:13;;;;;;;7.33;2.40;;;7.40;95.60;;;;;;10069083;29;20132;-90
